createdAt,value
2023-03-03T00:01:28.834Z,34.13
2023-03-03T00:03:55.309Z,33.08
2023-03-03T00:06:22.004Z,28.80
2023-03-03T00:08:48.391Z,35.30
2023-03-03T00:11:14.802Z,36.22
2023-03-03T00:13:50.194Z,51.17
2023-03-03T00:16:25.226Z,37.00
2023-03-03T00:18:52.699Z,42.22
2023-03-03T00:21:29.160Z,44.00
2023-03-03T00:24:10.892Z,39.70
2023-03-03T00:26:43.937Z,39.33
2023-03-03T00:29:33.391Z,39.78
2023-03-03T00:32:15.593Z,40.08
2023-03-03T00:34:43.573Z,40.92
2023-03-03T00:37:35.407Z,35.63
2023-03-03T00:40:24.028Z,35.58
2023-03-03T00:42:59.443Z,37.05
2023-03-03T00:45:48.496Z,38.17
2023-03-03T00:48:31.160Z,37.88
2023-03-03T00:50:59.699Z,45.42
2023-03-03T00:53:30.547Z,43.25
2023-03-03T00:55:57.822Z,42.63
2023-03-03T00:58:25.439Z,39.33
2023-03-03T01:00:53.878Z,42.33
2023-03-03T01:03:26.381Z,41.20
2023-03-03T01:05:54.349Z,44.20
2023-03-03T01:08:22.194Z,41.05
2023-03-03T01:10:51.664Z,40.92
2023-03-03T01:13:22.120Z,40.08
2023-03-03T01:15:48.567Z,30.65
2023-03-03T01:18:15.181Z,40.97
2023-03-03T01:20:41.986Z,39.92
2023-03-03T01:23:09.150Z,40.08
2023-03-03T01:25:36.028Z,40.50
2023-03-03T01:28:02.662Z,37.90
2023-03-03T01:30:29.178Z,38.58
2023-03-03T01:32:55.713Z,41.58
2023-03-03T01:35:22.138Z,37.78
2023-03-03T01:37:48.629Z,37.58
2023-03-03T01:40:20.345Z,37.55
2023-03-03T01:42:47.940Z,35.08
2023-03-03T01:45:20.050Z,38.53
2023-03-03T01:48:11.000Z,42.45
2023-03-03T01:50:55.065Z,42.60
2023-03-03T01:53:38.623Z,35.50
2023-03-03T01:56:07.483Z,39.22
2023-03-03T01:58:59.970Z,41.15
2023-03-03T02:01:28.469Z,37.95
2023-03-03T02:03:56.220Z,38.53
2023-03-03T02:06:28.445Z,36.53
2023-03-03T02:09:01.754Z,35.88
2023-03-03T02:11:32.241Z,41.53
2023-03-03T02:13:58.854Z,38.67
2023-03-03T02:16:25.381Z,41.00
2023-03-03T02:21:35.462Z,41.70
2023-03-03T02:24:16.166Z,40.70
2023-03-03T02:26:43.033Z,38.10
2023-03-03T02:29:10.568Z,42.63
2023-03-03T02:31:40.523Z,37.42
2023-03-03T02:34:07.266Z,37.33
2023-03-03T02:36:36.608Z,40.47
2023-03-03T02:39:19.487Z,42.65
2023-03-03T02:41:53.257Z,45.58
2023-03-03T02:44:23.618Z,39.53
2023-03-03T02:46:52.370Z,31.97
2023-03-03T02:49:22.568Z,42.42
2023-03-03T02:51:49.559Z,46.55
2023-03-03T02:54:17.210Z,40.47
2023-03-03T02:56:43.635Z,45.13
2023-03-03T02:59:10.750Z,44.75
2023-03-03T03:01:42.780Z,47.55
2023-03-03T03:04:19.263Z,42.25
2023-03-03T03:06:49.230Z,44.63
2023-03-03T03:09:17.750Z,41.28
2023-03-03T03:11:45.303Z,42.63
2023-03-03T03:14:14.764Z,47.00
2023-03-03T03:16:43.098Z,50.00
2023-03-03T03:19:10.464Z,43.30
2023-03-03T03:21:38.418Z,45.33
2023-03-03T03:24:06.725Z,39.10
2023-03-03T03:26:34.672Z,42.60
2023-03-03T03:29:02.124Z,38.50
2023-03-03T03:31:28.687Z,46.00
2023-03-03T03:33:55.187Z,45.13
2023-03-03T03:36:22.983Z,40.90
2023-03-03T03:38:50.003Z,40.97
2023-03-03T03:41:16.429Z,43.47
2023-03-03T03:43:43.036Z,41.78
2023-03-03T03:46:09.764Z,48.22
2023-03-03T03:48:36.441Z,45.47
2023-03-03T03:51:04.958Z,44.38
2023-03-03T03:53:32.309Z,45.88
2023-03-03T03:55:58.953Z,49.47
2023-03-03T03:58:25.776Z,50.22
2023-03-03T04:01:03.790Z,50.22
2023-03-03T04:03:30.570Z,61.20
2023-03-03T04:05:57.077Z,53.60
2023-03-03T04:08:23.710Z,48.45
2023-03-03T04:10:50.268Z,51.67
2023-03-03T04:13:17.599Z,53.95
2023-03-03T04:15:45.155Z,49.80
2023-03-03T04:18:12.065Z,50.60
2023-03-03T04:20:40.052Z,51.65
2023-03-03T04:23:07.287Z,48.05
2023-03-03T04:25:34.058Z,51.67
2023-03-03T04:28:03.567Z,54.28
2023-03-03T04:30:32.443Z,46.10
2023-03-03T04:32:59.333Z,47.85
2023-03-03T04:35:26.945Z,51.08
2023-03-03T04:37:53.791Z,54.53
2023-03-03T04:40:20.522Z,51.45
2023-03-03T04:42:49.457Z,54.22
2023-03-03T04:45:16.049Z,55.60
2023-03-03T04:47:45.004Z,48.28
2023-03-03T04:50:12.477Z,52.65
2023-03-03T04:52:39.124Z,52.88
2023-03-03T04:55:10.293Z,52.17
2023-03-03T04:57:37.538Z,51.47
2023-03-03T05:00:04.869Z,54.50
2023-03-03T05:02:31.387Z,57.35
2023-03-03T05:04:57.907Z,59.15
2023-03-03T05:07:24.681Z,46.92
2023-03-03T05:09:51.086Z,65.03
2023-03-03T05:12:17.521Z,46.13
2023-03-03T05:14:43.909Z,64.80
2023-03-03T05:17:10.290Z,53.22
2023-03-03T05:19:36.722Z,55.80
2023-03-03T05:22:03.126Z,57.42
2023-03-03T05:24:29.608Z,57.35
2023-03-03T05:26:55.993Z,53.03
2023-03-03T05:29:22.486Z,52.78
2023-03-03T05:31:49.003Z,53.33
2023-03-03T05:34:15.540Z,50.53
2023-03-03T05:36:41.983Z,48.47
2023-03-03T05:39:08.375Z,50.80
2023-03-03T05:41:36.801Z,50.85
2023-03-03T05:44:03.591Z,54.30
2023-03-03T05:46:30.085Z,55.65
2023-03-03T05:48:56.512Z,53.53
2023-03-03T05:51:22.931Z,50.92
2023-03-03T05:53:49.378Z,53.60
2023-03-03T05:56:15.789Z,52.15
2023-03-03T05:58:42.198Z,51.85
2023-03-03T06:01:08.670Z,50.67
2023-03-03T06:03:35.141Z,54.47
2023-03-03T06:06:01.589Z,52.30
2023-03-03T06:08:28.049Z,60.22
2023-03-03T06:10:54.469Z,65.40
2023-03-03T06:13:20.913Z,66.88
2023-03-03T06:15:47.468Z,57.28
2023-03-03T06:18:13.872Z,57.78
2023-03-03T06:20:40.346Z,59.83
2023-03-03T06:23:06.832Z,57.67
2023-03-03T06:25:35.632Z,54.75
2023-03-03T06:28:03.074Z,53.58
2023-03-03T06:30:30.600Z,55.58
2023-03-03T06:32:57.067Z,52.60
2023-03-03T06:35:23.497Z,64.85
2023-03-03T06:37:50.810Z,62.15
2023-03-03T06:40:17.470Z,69.50
2023-03-03T06:42:43.877Z,56.30
2023-03-03T06:45:10.644Z,51.53
2023-03-03T06:47:37.036Z,49.75
2023-03-03T06:50:03.672Z,47.38
2023-03-03T06:52:30.062Z,51.92
2023-03-03T06:54:58.746Z,45.08
2023-03-03T06:57:34.560Z,48.50
2023-03-03T07:00:20.839Z,44.17
2023-03-03T07:02:53.590Z,41.67
2023-03-03T07:05:20.059Z,49.67
2023-03-03T07:07:46.517Z,46.10
2023-03-03T07:10:28.030Z,41.65
2023-03-03T07:12:59.418Z,42.47
2023-03-03T07:15:36.007Z,45.78
2023-03-03T07:18:03.231Z,46.78
2023-03-03T07:20:36.331Z,50.10
2023-03-03T07:23:18.954Z,37.13
2023-03-03T07:25:46.614Z,38.20
2023-03-03T07:28:29.785Z,44.55
2023-03-03T07:30:58.220Z,34.65
2023-03-03T07:33:27.677Z,42.38
2023-03-03T07:35:56.986Z,34.05
2023-03-03T07:38:30.451Z,39.08
2023-03-03T07:41:00.702Z,42.55
2023-03-03T07:43:37.776Z,36.08
2023-03-03T07:46:10.902Z,43.38
2023-03-03T07:48:41.972Z,36.55
2023-03-03T07:53:49.385Z,38.95
2023-03-03T07:56:25.133Z,37.83
2023-03-03T07:58:51.853Z,34.08
2023-03-03T08:01:40.873Z,37.20
2023-03-03T08:04:21.748Z,33.85
2023-03-03T08:06:56.308Z,40.13
2023-03-03T08:09:31.112Z,41.15
2023-03-03T08:12:20.257Z,36.03
2023-03-03T08:14:47.042Z,34.70
2023-03-03T08:17:26.274Z,38.47
2023-03-03T08:19:54.520Z,46.22
2023-03-03T08:22:36.045Z,40.15
2023-03-03T08:25:02.527Z,44.53
2023-03-03T08:27:28.964Z,40.13
2023-03-03T08:29:55.363Z,37.55
2023-03-03T08:32:22.077Z,37.30
2023-03-03T08:34:48.839Z,39.33
2023-03-03T08:37:15.278Z,31.40
2023-03-03T08:39:41.723Z,37.65
2023-03-03T08:42:08.223Z,34.03
2023-03-03T08:44:34.623Z,32.75
2023-03-03T08:47:01.180Z,31.20
2023-03-03T08:49:27.582Z,30.58
2023-03-03T08:51:54.600Z,32.15
2023-03-03T08:54:20.992Z,23.08
2023-03-03T08:56:47.389Z,29.08
2023-03-03T08:59:13.785Z,26.40
2023-03-03T09:01:40.240Z,32.15
2023-03-03T09:04:06.800Z,35.55
2023-03-03T09:06:33.363Z,32.05
2023-03-03T09:08:59.770Z,29.48
2023-03-03T09:11:28.176Z,35.70
2023-03-03T09:14:02.477Z,35.30
2023-03-03T09:16:35.662Z,31.85
2023-03-03T09:19:16.584Z,35.33
2023-03-03T09:21:43.173Z,38.00
2023-03-03T09:24:22.894Z,35.33
2023-03-03T09:26:49.320Z,38.70
2023-03-03T09:29:23.775Z,33.45
2023-03-03T09:31:52.663Z,35.08
2023-03-03T09:34:25.487Z,33.08
2023-03-03T09:36:55.115Z,33.97
2023-03-03T09:39:26.907Z,38.08
2023-03-03T09:42:19.522Z,34.78
2023-03-03T09:44:57.850Z,32.78
2023-03-03T09:47:43.981Z,36.65
2023-03-03T09:50:23.997Z,42.92
2023-03-03T09:53:02.346Z,42.17
2023-03-03T09:56:00.958Z,44.45
2023-03-03T09:58:52.801Z,46.78
2023-03-03T10:01:45.494Z,43.20
2023-03-03T10:04:31.220Z,40.95
2023-03-03T10:07:30.031Z,42.67
2023-03-03T10:10:22.555Z,41.53
2023-03-03T10:13:05.705Z,41.10
2023-03-03T10:15:53.487Z,43.35
2023-03-03T10:18:39.308Z,56.20
2023-03-03T10:21:10.800Z,50.22
2023-03-03T10:23:54.892Z,45.28
2023-03-03T10:26:44.197Z,47.83
2023-03-03T10:29:34.074Z,51.28
2023-03-03T10:32:19.143Z,49.33
2023-03-03T10:34:54.420Z,49.92
2023-03-03T10:37:47.637Z,51.70
2023-03-03T10:40:55.874Z,46.42
2023-03-03T10:43:36.922Z,47.53
2023-03-03T10:46:42.357Z,46.78
2023-03-03T10:49:18.811Z,41.85
2023-03-03T10:52:01.072Z,42.90
2023-03-03T10:54:52.686Z,48.58
2023-03-03T10:57:30.740Z,49.55
2023-03-03T11:00:16.082Z,50.97
2023-03-03T11:03:11.624Z,44.20
2023-03-03T11:05:55.027Z,46.13
2023-03-03T11:08:29.820Z,48.22
2023-03-03T11:11:34.449Z,48.95
2023-03-03T11:14:12.970Z,46.70
2023-03-03T11:17:05.568Z,50.72
2023-03-03T11:19:57.621Z,47.25
2023-03-03T11:22:49.604Z,47.72
2023-03-03T11:25:25.149Z,46.67
2023-03-03T11:28:06.705Z,50.30
2023-03-03T11:31:01.121Z,48.85
2023-03-03T11:33:45.600Z,47.25
2023-03-03T11:36:20.816Z,48.80
2023-03-03T11:39:10.786Z,45.80
2023-03-03T11:42:02.074Z,46.33
2023-03-03T11:47:31.417Z,45.30
2023-03-03T11:50:14.042Z,44.08
2023-03-03T11:52:53.285Z,45.65
2023-03-03T11:55:35.996Z,44.80
2023-03-03T11:58:21.960Z,44.17
2023-03-03T12:01:03.990Z,46.90
2023-03-03T12:03:39.609Z,48.90
2023-03-03T12:06:34.123Z,47.03
2023-03-03T12:09:11.796Z,50.47
2023-03-03T12:11:50.761Z,51.60
2023-03-03T12:14:37.595Z,51.00
2023-03-03T12:17:21.561Z,52.00
2023-03-03T12:20:29.777Z,45.67
2023-03-03T12:23:07.561Z,48.45
2023-03-03T12:25:43.872Z,47.28
2023-03-03T12:28:19.513Z,49.08
2023-03-03T12:31:09.000Z,54.60
2023-03-03T12:33:54.003Z,44.70
2023-03-03T12:36:32.388Z,49.72
2023-03-03T12:39:32.443Z,43.22
2023-03-03T12:42:14.198Z,46.60
2023-03-03T12:44:59.432Z,45.67
2023-03-03T12:47:40.158Z,47.08
2023-03-03T12:50:09.324Z,36.05
2023-03-03T12:53:02.698Z,47.05
2023-03-03T12:55:55.194Z,44.40
2023-03-03T12:58:56.352Z,46.97
2023-03-03T13:01:39.901Z,40.97
2023-03-03T13:04:29.852Z,43.95
2023-03-03T13:07:18.192Z,48.45
2023-03-03T13:10:02.026Z,46.28
2023-03-03T13:12:35.260Z,46.95
2023-03-03T13:15:20.077Z,47.25
2023-03-03T13:18:10.953Z,45.05
2023-03-03T13:20:45.313Z,39.72
2023-03-03T13:23:53.264Z,50.20
2023-03-03T13:26:32.543Z,39.53
2023-03-03T13:29:20.398Z,38.42
2023-03-03T13:31:55.865Z,49.13
2023-03-03T13:34:42.751Z,38.75
2023-03-03T13:37:23.826Z,37.72
2023-03-03T13:40:05.604Z,36.45
2023-03-03T13:42:44.261Z,39.40
2023-03-03T13:45:31.231Z,35.35
2023-03-03T13:48:19.468Z,34.40
2023-03-03T13:50:53.363Z,34.30
2023-03-03T13:53:36.159Z,37.80
2023-03-03T13:56:15.238Z,36.30
2023-03-03T13:58:53.648Z,31.20
2023-03-03T14:01:38.338Z,32.13
2023-03-03T14:04:31.568Z,36.15
2023-03-03T14:07:08.054Z,35.00
2023-03-03T14:09:53.156Z,32.78
2023-03-03T14:12:31.372Z,39.00
2023-03-03T14:15:17.340Z,35.55
2023-03-03T14:18:17.131Z,35.80
2023-03-03T14:20:54.875Z,32.50
2023-03-03T14:23:30.927Z,33.25
2023-03-03T14:26:10.169Z,34.03
2023-03-03T14:28:44.082Z,37.08
2023-03-03T14:31:38.363Z,34.78
2023-03-03T14:34:22.879Z,36.35
2023-03-03T14:36:58.067Z,37.65
2023-03-03T14:39:37.184Z,35.20
2023-03-03T14:42:29.813Z,34.50
2023-03-03T14:44:59.289Z,40.38
2023-03-03T14:47:27.542Z,35.67
2023-03-03T14:49:56.592Z,42.80
2023-03-03T14:52:26.196Z,40.20
2023-03-03T14:54:56.119Z,36.22
2023-03-03T14:57:45.959Z,40.33
2023-03-03T15:00:12.570Z,37.20
2023-03-03T15:03:01.992Z,36.28
2023-03-03T15:05:31.069Z,33.70
2023-03-03T15:08:08.902Z,38.42
2023-03-03T15:10:38.514Z,34.08
2023-03-03T15:13:20.212Z,36.28
2023-03-03T15:16:00.469Z,33.25
2023-03-03T15:18:29.242Z,41.00
2023-03-03T15:21:08.061Z,34.40
2023-03-03T15:23:42.742Z,34.22
2023-03-03T15:26:50.387Z,40.30
2023-03-03T15:29:30.507Z,32.45
2023-03-03T15:32:17.812Z,32.88
2023-03-03T15:34:51.272Z,31.98
2023-03-03T15:37:47.558Z,36.33
2023-03-03T15:40:29.257Z,31.25
2023-03-03T15:43:17.552Z,35.60
2023-03-03T15:45:43.906Z,35.88
2023-03-03T15:48:46.312Z,36.53
2023-03-03T15:52:02.160Z,33.08
2023-03-03T15:54:41.219Z,32.42
2023-03-03T15:57:21.662Z,30.10
2023-03-03T16:00:02.832Z,31.13
2023-03-03T16:02:53.640Z,30.80
2023-03-03T16:05:45.845Z,34.63
2023-03-03T16:08:25.924Z,31.38
2023-03-03T16:11:09.320Z,31.63
2023-03-03T16:13:59.600Z,32.88
2023-03-03T16:16:52.086Z,29.35
2023-03-03T16:20:01.970Z,28.80
2023-03-03T16:23:10.072Z,34.60
2023-03-03T16:25:58.234Z,35.65
2023-03-03T16:28:34.780Z,31.77
2023-03-03T16:31:21.973Z,35.97
2023-03-03T16:34:06.006Z,36.03
2023-03-03T16:36:38.599Z,34.63
2023-03-03T16:39:38.801Z,30.05
2023-03-03T16:42:25.920Z,33.83
2023-03-03T16:45:18.330Z,33.63
2023-03-03T16:47:56.838Z,35.35
2023-03-03T16:51:00.874Z,33.70
2023-03-03T16:53:45.821Z,31.17
2023-03-03T16:56:18.256Z,31.88
2023-03-03T16:59:28.547Z,34.85
2023-03-03T17:02:12.674Z,37.08
2023-03-03T17:05:05.816Z,35.05
2023-03-03T17:08:00.135Z,32.38
2023-03-03T17:10:30.309Z,36.08
2023-03-03T17:13:05.119Z,34.10
2023-03-03T17:15:39.415Z,33.30
2023-03-03T17:18:25.410Z,31.20
2023-03-03T17:20:58.000Z,36.00
2023-03-03T17:23:34.921Z,36.72
2023-03-03T17:26:20.638Z,35.70
2023-03-03T17:29:07.393Z,34.50
2023-03-03T17:31:53.893Z,36.65
2023-03-03T17:34:46.633Z,34.10
2023-03-03T17:37:27.964Z,32.58
2023-03-03T17:40:05.443Z,39.40
2023-03-03T17:42:47.704Z,39.63
2023-03-03T17:45:15.886Z,40.83
2023-03-03T17:47:50.595Z,36.72
2023-03-03T17:50:41.872Z,37.03
2023-03-03T17:56:16.129Z,35.70
2023-03-03T17:59:02.618Z,37.70
2023-03-03T18:01:57.486Z,36.40
2023-03-03T18:04:52.240Z,43.65
2023-03-03T18:07:45.848Z,41.08
2023-03-03T18:10:42.991Z,42.63
2023-03-03T18:13:30.992Z,39.35
2023-03-03T18:16:18.112Z,40.42
2023-03-03T18:19:18.153Z,38.85
2023-03-03T18:22:17.085Z,39.00
2023-03-03T18:24:49.495Z,35.75
2023-03-03T18:27:24.708Z,40.08
2023-03-03T18:30:12.844Z,47.50
2023-03-03T18:33:01.155Z,40.65
2023-03-03T18:35:33.496Z,37.45
2023-03-03T18:38:15.049Z,39.92
2023-03-03T18:40:58.232Z,43.13
2023-03-03T18:43:39.843Z,40.17
2023-03-03T18:46:29.133Z,39.83
2023-03-03T18:49:09.875Z,40.70
2023-03-03T18:51:39.348Z,42.50
2023-03-03T18:54:30.903Z,42.10
2023-03-03T18:56:57.784Z,38.30
2023-03-03T18:59:30.273Z,40.20
2023-03-03T19:02:29.918Z,44.42
2023-03-03T19:05:05.865Z,42.75
2023-03-03T19:07:49.258Z,45.75
2023-03-03T19:10:46.825Z,46.78
2023-03-03T19:13:32.073Z,38.65
2023-03-03T19:16:08.118Z,41.22
2023-03-03T19:18:43.248Z,42.53
2023-03-03T19:21:12.721Z,39.35
2023-03-03T19:24:00.874Z,39.00
2023-03-03T19:26:30.316Z,37.05
2023-03-03T19:29:05.498Z,39.92
2023-03-03T19:31:34.985Z,40.10
2023-03-03T19:34:19.160Z,36.65
2023-03-03T19:37:05.644Z,40.80
2023-03-03T19:39:50.732Z,41.88
2023-03-03T19:42:30.948Z,36.95
2023-03-03T19:45:31.962Z,37.15
2023-03-03T19:48:22.441Z,42.45
2023-03-03T19:51:25.671Z,39.90
2023-03-03T19:54:29.858Z,41.58
2023-03-03T19:57:01.833Z,41.10
2023-03-03T19:59:59.033Z,45.83
2023-03-03T20:02:55.245Z,40.47
2023-03-03T20:05:47.968Z,41.97
2023-03-03T20:08:21.198Z,37.33
2023-03-03T20:10:59.646Z,46.60
2023-03-03T20:13:30.852Z,40.55
2023-03-03T20:19:01.515Z,45.05
2023-03-03T20:21:59.080Z,36.20
2023-03-03T20:25:03.255Z,40.60
2023-03-03T20:27:47.558Z,40.92
2023-03-03T20:30:26.264Z,40.85
2023-03-03T20:33:10.617Z,43.47
2023-03-03T20:36:05.381Z,43.58
2023-03-03T20:38:45.604Z,41.10
2023-03-03T20:41:39.424Z,40.83
2023-03-03T20:44:19.026Z,40.90
2023-03-03T20:46:57.507Z,39.95
2023-03-03T20:50:15.400Z,38.38
2023-03-03T20:53:14.018Z,33.75
2023-03-03T20:55:57.830Z,44.78
2023-03-03T20:58:36.724Z,37.70
2023-03-03T21:01:09.504Z,38.75
2023-03-03T21:03:45.190Z,37.15
2023-03-03T21:06:15.504Z,41.53
2023-03-03T21:08:53.461Z,41.60
2023-03-03T21:11:31.805Z,38.00
2023-03-03T21:13:59.439Z,42.20
2023-03-03T21:16:25.852Z,40.60
2023-03-03T21:19:00.375Z,37.03
2023-03-03T21:21:29.727Z,35.50
2023-03-03T21:23:56.729Z,32.35
2023-03-03T21:26:49.496Z,36.03
2023-03-03T21:29:27.600Z,35.60
2023-03-03T21:32:05.364Z,36.90
2023-03-03T21:34:32.903Z,38.55
2023-03-03T21:37:01.231Z,37.95
2023-03-03T21:39:36.155Z,41.50
2023-03-03T21:42:08.779Z,38.75
2023-03-03T21:44:39.626Z,45.40
2023-03-03T21:47:08.799Z,38.30
2023-03-03T21:49:35.845Z,37.53
2023-03-03T21:52:02.876Z,40.97
2023-03-03T21:54:29.385Z,50.70
2023-03-03T21:56:55.776Z,50.38
2023-03-03T21:59:22.265Z,45.33
2023-03-03T22:01:48.680Z,48.65
2023-03-03T22:04:15.533Z,44.97
2023-03-03T22:06:42.161Z,48.03
2023-03-03T22:09:08.577Z,52.83
2023-03-03T22:11:35.016Z,58.78
2023-03-03T22:14:01.711Z,61.13
2023-03-03T22:16:28.157Z,58.95
2023-03-03T22:18:54.575Z,64.88
2023-03-03T22:21:21.925Z,63.17
2023-03-03T22:23:48.336Z,69.85
2023-03-03T22:26:14.719Z,71.00
2023-03-03T22:28:43.818Z,73.00
2023-03-03T22:31:10.634Z,67.72
2023-03-03T22:33:37.042Z,67.35
2023-03-03T22:36:03.609Z,71.13
2023-03-03T22:38:30.018Z,64.63
2023-03-03T22:40:56.410Z,75.30
2023-03-03T22:43:22.821Z,65.25
2023-03-03T22:45:50.488Z,76.07
2023-03-03T22:48:17.061Z,68.43
2023-03-03T22:50:45.476Z,76.03
2023-03-03T22:53:11.900Z,68.60
2023-03-03T22:55:38.332Z,66.38
2023-03-03T22:58:05.213Z,69.18
2023-03-03T23:00:33.286Z,80.22
2023-03-03T23:02:59.814Z,72.32
2023-03-03T23:05:26.462Z,64.45
2023-03-03T23:07:52.883Z,71.43
2023-03-03T23:10:19.357Z,67.57
2023-03-03T23:12:45.794Z,69.50
2023-03-03T23:15:15.452Z,73.95
2023-03-03T23:17:43.593Z,69.60
2023-03-03T23:20:13.130Z,68.78
2023-03-03T23:22:40.246Z,67.85
2023-03-03T23:25:07.402Z,67.35
2023-03-03T23:27:34.118Z,69.55
2023-03-03T23:30:00.517Z,70.15
2023-03-03T23:32:26.988Z,63.05
2023-03-03T23:34:54.250Z,69.55
2023-03-03T23:37:21.361Z,69.35
2023-03-03T23:39:48.123Z,69.70
2023-03-03T23:42:14.586Z,70.78
2023-03-03T23:44:41.176Z,68.22
2023-03-03T23:47:08.524Z,69.05
2023-03-03T23:54:41.784Z,73.03
2023-03-03T23:57:08.752Z,65.43
2023-03-03T23:59:35.721Z,68.93
